sensor_id;sensor_type;location;lat;lon;timestamp;pressure;altitude;pressure_sealevel;temperature;humidity
15634;BME280;14654;48.898;8.308;2024-02-14T00:02:07;100728.69;;;5.78;100.00
15634;BME280;14654;48.898;8.308;2024-02-14T00:04:32;100731.38;;;5.86;100.00
15634;BME280;14654;48.898;8.308;2024-02-14T00:06:58;100739.22;;;5.93;100.00
15634;BME280;14654;48.898;8.308;2024-02-14T00:09:23;100739.28;;;5.98;100.00
15634;BME280;14654;48.898;8.308;2024-02-14T00:11:48;100733.47;;;6.04;100.00
15634;BME280;14654;48.898;8.308;2024-02-14T00:14:14;100744.69;;;6.10;100.00
15634;BME280;14654;48.898;8.308;2024-02-14T00:16:39;100746.47;;;6.15;100.00
15634;BME280;14654;48.898;8.308;2024-02-14T00:19:04;100743.94;;;6.18;100.00
15634;BME280;14654;48.898;8.308;2024-02-14T00:21:30;100745.75;;;6.22;100.00
15634;BME280;14654;48.898;8.308;2024-02-14T00:23:56;100742.38;;;6.26;100.00
15634;BME280;14654;48.898;8.308;2024-02-14T00:26:23;100741.56;;;6.30;100.00
15634;BME280;14654;48.898;8.308;2024-02-14T00:28:49;100745.03;;;6.32;100.00
15634;BME280;14654;48.898;8.308;2024-02-14T00:31:14;100747.66;;;6.37;100.00
15634;BME280;14654;48.898;8.308;2024-02-14T00:33:39;100746.06;;;6.44;100.00
15634;BME280;14654;48.898;8.308;2024-02-14T00:36:06;100744.44;;;6.49;100.00
15634;BME280;14654;48.898;8.308;2024-02-14T00:38:31;100740.19;;;6.52;100.00
15634;BME280;14654;48.898;8.308;2024-02-14T00:40:57;100742.84;;;6.57;100.00
15634;BME280;14654;48.898;8.308;2024-02-14T00:43:22;100748.84;;;6.58;100.00
15634;BME280;14654;48.898;8.308;2024-02-14T00:45:48;100744.59;;;6.61;100.00
15634;BME280;14654;48.898;8.308;2024-02-14T00:48:13;100734.38;;;6.66;100.00
15634;BME280;14654;48.898;8.308;2024-02-14T00:50:38;100731.84;;;6.69;100.00
15634;BME280;14654;48.898;8.308;2024-02-14T00:53:04;100729.34;;;6.72;100.00
15634;BME280;14654;48.898;8.308;2024-02-14T00:55:29;100719.06;;;6.74;100.00
15634;BME280;14654;48.898;8.308;2024-02-14T00:57:55;100728.56;;;6.78;100.00
15634;BME280;14654;48.898;8.308;2024-02-14T01:00:20;100717.47;;;6.83;100.00
15634;BME280;14654;48.898;8.308;2024-02-14T01:02:45;100708.97;;;6.86;100.00
15634;BME280;14654;48.898;8.308;2024-02-14T01:05:11;100709.00;;;6.91;100.00
15634;BME280;14654;48.898;8.308;2024-02-14T01:07:36;100706.50;;;6.95;100.00
15634;BME280;14654;48.898;8.308;2024-02-14T01:10:02;100705.66;;;6.96;100.00
15634;BME280;14654;48.898;8.308;2024-02-14T01:12:28;100704.81;;;6.99;100.00
15634;BME280;14654;48.898;8.308;2024-02-14T01:14:55;100708.31;;;7.03;100.00
15634;BME280;14654;48.898;8.308;2024-02-14T01:17:20;100702.28;;;7.04;100.00
15634;BME280;14654;48.898;8.308;2024-02-14T01:19:45;100704.06;;;7.06;100.00
15634;BME280;14654;48.898;8.308;2024-02-14T01:22:11;100703.19;;;7.06;100.00
15634;BME280;14654;48.898;8.308;2024-02-14T01:24:36;100701.44;;;7.05;100.00
15634;BME280;14654;48.898;8.308;2024-02-14T01:27:02;100699.72;;;7.02;100.00
15634;BME280;14654;48.898;8.308;2024-02-14T01:29:28;100694.50;;;6.97;100.00
15634;BME280;14654;48.898;8.308;2024-02-14T01:31:53;100696.16;;;6.92;100.00
15634;BME280;14654;48.898;8.308;2024-02-14T01:34:19;100694.38;;;6.86;100.00
15634;BME280;14654;48.898;8.308;2024-02-14T01:36:45;100688.28;;;6.80;100.00
15634;BME280;14654;48.898;8.308;2024-02-14T01:39:11;100683.03;;;6.72;100.00
15634;BME280;14654;48.898;8.308;2024-02-14T01:41:46;100671.81;;;6.64;100.00
15634;BME280;14654;48.898;8.308;2024-02-14T01:44:16;100676.84;;;6.59;100.00
15634;BME280;14654;48.898;8.308;2024-02-14T01:46:42;100673.38;;;6.54;100.00
15634;BME280;14654;48.898;8.308;2024-02-14T01:49:11;100674.16;;;6.50;100.00
15634;BME280;14654;48.898;8.308;2024-02-14T01:51:42;100672.38;;;6.46;100.00
15634;BME280;14654;48.898;8.308;2024-02-14T01:54:10;100665.50;;;6.42;100.00
15634;BME280;14654;48.898;8.308;2024-02-14T01:56:36;100660.25;;;6.35;100.00
15634;BME280;14654;48.898;8.308;2024-02-14T01:59:02;100664.44;;;6.30;100.00
15634;BME280;14654;48.898;8.308;2024-02-14T02:01:27;100665.28;;;6.26;100.00
15634;BME280;14654;48.898;8.308;2024-02-14T02:03:53;100665.28;;;6.26;100.00
15634;BME280;14654;48.898;8.308;2024-02-14T02:06:19;100647.25;;;6.24;100.00
15634;BME280;14654;48.898;8.308;2024-02-14T02:08:44;100648.13;;;6.25;100.00
15634;BME280;14654;48.898;8.308;2024-02-14T02:11:10;100639.53;;;6.24;100.00
15634;BME280;14654;48.898;8.308;2024-02-14T02:13:35;100642.94;;;6.22;100.00
15634;BME280;14654;48.898;8.308;2024-02-14T02:16:02;100648.03;;;6.19;100.00
15634;BME280;14654;48.898;8.308;2024-02-14T02:18:32;100645.34;;;6.13;100.00
15634;BME280;14654;48.898;8.308;2024-02-14T02:20:58;100653.00;;;6.08;100.00
15634;BME280;14654;48.898;8.308;2024-02-14T02:23:23;100638.34;;;6.01;100.00
15634;BME280;14654;48.898;8.308;2024-02-14T02:25:48;100645.94;;;5.96;100.00
15634;BME280;14654;48.898;8.308;2024-02-14T02:28:15;100634.72;;;5.89;100.00
15634;BME280;14654;48.898;8.308;2024-02-14T02:30:41;100638.06;;;5.85;100.00
15634;BME280;14654;48.898;8.308;2024-02-14T02:33:06;100640.56;;;5.80;100.00
15634;BME280;14654;48.898;8.308;2024-02-14T02:35:32;100629.34;;;5.77;100.00
15634;BME280;14654;48.898;8.308;2024-02-14T02:37:58;100641.28;;;5.73;100.00
15634;BME280;14654;48.898;8.308;2024-02-14T02:40:24;100636.09;;;5.70;100.00
15634;BME280;14654;48.898;8.308;2024-02-14T02:42:49;100646.34;;;5.69;100.00
15634;BME280;14654;48.898;8.308;2024-02-14T02:45:16;100639.47;;;5.68;100.00
15634;BME280;14654;48.898;8.308;2024-02-14T02:47:41;100646.34;;;5.69;100.00
15634;BME280;14654;48.898;8.308;2024-02-14T02:50:07;100648.91;;;5.69;100.00
15634;BME280;14654;48.898;8.308;2024-02-14T02:52:33;100653.28;;;5.74;100.00
15634;BME280;14654;48.898;8.308;2024-02-14T02:54:58;100650.84;;;5.84;100.00
15634;BME280;14654;48.898;8.308;2024-02-14T02:57:25;100655.34;;;5.94;100.00
15634;BME280;14654;48.898;8.308;2024-02-14T02:59:52;100658.06;;;6.03;100.00
15634;BME280;14654;48.898;8.308;2024-02-14T03:02:17;100650.41;;;6.08;100.00
15634;BME280;14654;48.898;8.308;2024-02-14T03:04:44;100652.31;;;6.18;100.00
15634;BME280;14654;48.898;8.308;2024-02-14T03:07:10;100669.56;;;6.27;100.00
15634;BME280;14654;48.898;8.308;2024-02-14T03:09:35;100649.97;;;6.34;100.00
15634;BME280;14654;48.898;8.308;2024-02-14T03:12:04;100658.69;;;6.45;100.00
15634;BME280;14654;48.898;8.308;2024-02-14T03:14:31;100652.75;;;6.49;100.00
15634;BME280;14654;48.898;8.308;2024-02-14T03:16:59;100657.97;;;6.55;100.00
15634;BME280;14654;48.898;8.308;2024-02-14T03:19:25;100664.03;;;6.61;100.00
15634;BME280;14654;48.898;8.308;2024-02-14T03:21:52;100664.84;;;6.58;100.00
15634;BME280;14654;48.898;8.308;2024-02-14T03:24:17;100663.16;;;6.60;100.00
15634;BME280;14654;48.898;8.308;2024-02-14T03:26:43;100664.94;;;6.63;100.00
15634;BME280;14654;48.898;8.308;2024-02-14T03:29:08;100662.38;;;6.66;100.00
15634;BME280;14654;48.898;8.308;2024-02-14T03:31:34;100660.69;;;6.68;100.00
15634;BME280;14654;48.898;8.308;2024-02-14T03:33:59;100658.19;;;6.73;100.00
15634;BME280;14654;48.898;8.308;2024-02-14T03:36:25;100659.91;;;6.74;100.00
15634;BME280;14654;48.898;8.308;2024-02-14T03:38:53;100655.69;;;6.77;100.00
15634;BME280;14654;48.898;8.308;2024-02-14T03:41:18;100660.00;;;6.81;100.00
15634;BME280;14654;48.898;8.308;2024-02-14T03:43:44;100665.22;;;6.86;100.00
15634;BME280;14654;48.898;8.308;2024-02-14T03:46:09;100663.59;;;6.93;100.00
15634;BME280;14654;48.898;8.308;2024-02-14T03:48:34;100661.06;;;6.97;100.00
15634;BME280;14654;48.898;8.308;2024-02-14T03:51:00;100667.09;;;7.01;100.00
15634;BME280;14654;48.898;8.308;2024-02-14T03:53:25;100662.84;;;7.05;100.00
15634;BME280;14654;48.898;8.308;2024-02-14T03:55:51;100654.28;;;7.06;100.00
15634;BME280;14654;48.898;8.308;2024-02-14T03:58:18;100661.19;;;7.08;100.00
15634;BME280;14654;48.898;8.308;2024-02-14T04:00:48;100663.78;;;7.11;100.00
15634;BME280;14654;48.898;8.308;2024-02-14T04:03:16;100671.56;;;7.16;100.00
15634;BME280;14654;48.898;8.308;2024-02-14T04:05:41;100666.47;;;7.21;100.00
15634;BME280;14654;48.898;8.308;2024-02-14T04:08:06;100666.50;;;7.24;100.00
15634;BME280;14654;48.898;8.308;2024-02-14T04:10:35;100660.53;;;7.25;100.00
15634;BME280;14654;48.898;8.308;2024-02-14T04:13:00;100664.81;;;7.26;100.00
15634;BME280;14654;48.898;8.308;2024-02-14T04:15:26;100663.97;;;7.28;100.00
15634;BME280;14654;48.898;8.308;2024-02-14T04:17:51;100668.28;;;7.31;100.00
15634;BME280;14654;48.898;8.308;2024-02-14T04:20:16;100671.75;;;7.33;100.00
15634;BME280;14654;48.898;8.308;2024-02-14T04:22:42;100669.22;;;7.38;100.00
15634;BME280;14654;48.898;8.308;2024-02-14T04:25:08;100665.84;;;7.42;100.00
15634;BME280;14654;48.898;8.308;2024-02-14T04:27:34;100671.91;;;7.47;100.00
15634;BME280;14654;48.898;8.308;2024-02-14T04:30:00;100680.56;;;7.55;100.00
15634;BME280;14654;48.898;8.308;2024-02-14T04:32:26;100677.13;;;7.56;100.00
15634;BME280;14654;48.898;8.308;2024-02-14T04:34:51;100670.31;;;7.61;100.00
15634;BME280;14654;48.898;8.308;2024-02-14T04:37:17;100672.06;;;7.64;100.00
15634;BME280;14654;48.898;8.308;2024-02-14T04:39:43;100678.13;;;7.69;100.00
15634;BME280;14654;48.898;8.308;2024-02-14T04:42:09;100685.00;;;7.73;100.00
15634;BME280;14654;48.898;8.308;2024-02-14T04:44:34;100682.50;;;7.81;100.00
15634;BME280;14654;48.898;8.308;2024-02-14T04:47:00;100683.38;;;7.83;100.00
15634;BME280;14654;48.898;8.308;2024-02-14T04:49:25;100686.88;;;7.88;100.00
15634;BME280;14654;48.898;8.308;2024-02-14T04:51:51;100692.91;;;7.90;100.00
15634;BME280;14654;48.898;8.308;2024-02-14T04:54:18;100683.47;;;7.96;100.00
15634;BME280;14654;48.898;8.308;2024-02-14T04:56:43;100683.53;;;8.00;100.00
15634;BME280;14654;48.898;8.308;2024-02-14T04:59:08;100680.13;;;8.01;100.00
15634;BME280;14654;48.898;8.308;2024-02-14T05:01:34;100668.06;;;8.02;100.00
15634;BME280;14654;48.898;8.308;2024-02-14T05:04:00;100662.91;;;8.03;100.00
15634;BME280;14654;48.898;8.308;2024-02-14T05:06:25;100662.94;;;8.05;100.00
15634;BME280;14654;48.898;8.308;2024-02-14T05:08:51;100669.84;;;8.06;100.00
15634;BME280;14654;48.898;8.308;2024-02-14T05:11:17;100669.84;;;8.07;100.00
15634;BME280;14654;48.898;8.308;2024-02-14T05:13:43;100677.59;;;8.09;100.00
15634;BME280;14654;48.898;8.308;2024-02-14T05:16:09;100671.59;;;8.12;100.00
15634;BME280;14654;48.898;8.308;2024-02-14T05:18:36;100670.75;;;8.14;100.00
15634;BME280;14654;48.898;8.308;2024-02-14T05:21:05;100669.03;;;8.15;100.00
15634;BME280;14654;48.898;8.308;2024-02-14T05:23:31;100665.59;;;8.17;100.00
15634;BME280;14654;48.898;8.308;2024-02-14T05:25:56;100670.75;;;8.19;100.00
15634;BME280;14654;48.898;8.308;2024-02-14T05:28:21;100666.47;;;8.21;100.00
15634;BME280;14654;48.898;8.308;2024-02-14T05:30:47;100669.06;;;8.21;100.00
15634;BME280;14654;48.898;8.308;2024-02-14T05:33:12;100667.38;;;8.21;100.00
15634;BME280;14654;48.898;8.308;2024-02-14T05:35:37;100661.31;;;8.21;100.00
15634;BME280;14654;48.898;8.308;2024-02-14T05:38:03;100661.31;;;8.21;100.00
15634;BME280;14654;48.898;8.308;2024-02-14T05:40:29;100663.06;;;8.22;100.00
15634;BME280;14654;48.898;8.308;2024-02-14T05:42:55;100669.09;;;8.24;100.00
15634;BME280;14654;48.898;8.308;2024-02-14T05:45:21;100668.25;;;8.27;100.00
15634;BME280;14654;48.898;8.308;2024-02-14T05:47:46;100669.16;;;8.30;100.00
15634;BME280;14654;48.898;8.308;2024-02-14T05:50:11;100666.59;;;8.35;100.00
15634;BME280;14654;48.898;8.308;2024-02-14T05:52:38;100665.72;;;8.37;100.00
15634;BME280;14654;48.898;8.308;2024-02-14T05:55:04;100676.06;;;8.41;100.00
15634;BME280;14654;48.898;8.308;2024-02-14T05:57:30;100670.09;;;8.45;100.00
15634;BME280;14654;48.898;8.308;2024-02-14T05:59:55;100677.03;;;8.52;100.00
15634;BME280;14654;48.898;8.308;2024-02-14T06:02:20;100685.66;;;8.52;100.00
15634;BME280;14654;48.898;8.308;2024-02-14T06:04:46;100678.78;;;8.56;100.00
15634;BME280;14654;48.898;8.308;2024-02-14T06:07:12;100685.66;;;8.57;100.00
15634;BME280;14654;48.898;8.308;2024-02-14T06:09:37;100685.66;;;8.59;100.00
15634;BME280;14654;48.898;8.308;2024-02-14T06:12:03;100694.31;;;8.64;100.00
15634;BME280;14654;48.898;8.308;2024-02-14T06:14:29;100684.88;;;8.66;100.00
15634;BME280;14654;48.898;8.308;2024-02-14T06:16:56;100683.16;;;8.68;100.00
15634;BME280;14654;48.898;8.308;2024-02-14T06:19:22;100682.28;;;8.71;100.00
15634;BME280;14654;48.898;8.308;2024-02-14T06:21:47;100690.91;;;8.73;100.00
15634;BME280;14654;48.898;8.308;2024-02-14T06:24:12;100696.06;;;8.74;100.00
15634;BME280;14654;48.898;8.308;2024-02-14T06:26:38;100707.28;;;8.75;100.00
15634;BME280;14654;48.898;8.308;2024-02-14T06:29:04;100708.97;;;8.74;100.00
15634;BME280;14654;48.898;8.308;2024-02-14T06:31:29;100710.69;;;8.75;100.00
15634;BME280;14654;48.898;8.308;2024-02-14T06:33:54;100714.16;;;8.77;100.00
15634;BME280;14654;48.898;8.308;2024-02-14T06:36:20;100716.75;;;8.80;100.00
15634;BME280;14654;48.898;8.308;2024-02-14T06:38:45;100723.63;;;8.80;100.00
15634;BME280;14654;48.898;8.308;2024-02-14T06:41:11;100718.47;;;8.80;100.00
15634;BME280;14654;48.898;8.308;2024-02-14T06:43:37;100718.50;;;8.81;100.00
15634;BME280;14654;48.898;8.308;2024-02-14T06:46:07;100720.22;;;8.82;100.00
15634;BME280;14654;48.898;8.308;2024-02-14T06:48:32;100717.63;;;8.82;100.00
15634;BME280;14654;48.898;8.308;2024-02-14T06:50:58;100719.34;;;8.82;100.00
15634;BME280;14654;48.898;8.308;2024-02-14T06:53:23;100729.66;;;8.82;100.00
15634;BME280;14654;48.898;8.308;2024-02-14T06:55:48;100737.41;;;8.82;100.00
15634;BME280;14654;48.898;8.308;2024-02-14T06:58:14;100739.13;;;8.83;100.00
15634;BME280;14654;48.898;8.308;2024-02-14T07:00:39;100735.69;;;8.82;100.00
15634;BME280;14654;48.898;8.308;2024-02-14T07:03:04;100729.69;;;8.83;100.00
15634;BME280;14654;48.898;8.308;2024-02-14T07:05:30;100727.09;;;8.85;100.00
15634;BME280;14654;48.898;8.308;2024-02-14T07:07:56;100729.69;;;8.87;100.00
15634;BME280;14654;48.898;8.308;2024-02-14T07:10:21;100736.59;;;8.89;100.00
15634;BME280;14654;48.898;8.308;2024-02-14T07:12:47;100738.31;;;8.92;100.00
15634;BME280;14654;48.898;8.308;2024-02-14T07:15:12;100739.19;;;8.94;100.00
15634;BME280;14654;48.898;8.308;2024-02-14T07:17:37;100734.91;;;8.96;100.00
15634;BME280;14654;48.898;8.308;2024-02-14T07:20:06;100736.59;;;8.95;100.00
15634;BME280;14654;48.898;8.308;2024-02-14T07:22:34;100735.75;;;8.95;100.00
15634;BME280;14654;48.898;8.308;2024-02-14T07:24:59;100734.88;;;8.94;100.00
15634;BME280;14654;48.898;8.308;2024-02-14T07:27:25;100742.66;;;8.96;100.00
15634;BME280;14654;48.898;8.308;2024-02-14T07:29:50;100738.38;;;8.98;100.00
15634;BME280;14654;48.898;8.308;2024-02-14T07:32:15;100752.13;;;8.98;100.00
15634;BME280;14654;48.898;8.308;2024-02-14T07:34:41;100764.16;;;9.01;100.00
15634;BME280;14654;48.898;8.308;2024-02-14T07:37:07;100761.63;;;9.03;100.00
15634;BME280;14654;48.898;8.308;2024-02-14T07:39:32;100763.38;;;9.07;100.00
15634;BME280;14654;48.898;8.308;2024-02-14T07:42:00;100773.69;;;9.13;100.00
15634;BME280;14654;48.898;8.308;2024-02-14T07:44:25;100772.00;;;9.20;100.00
15634;BME280;14654;48.898;8.308;2024-02-14T07:46:50;100778.91;;;9.25;100.00
15634;BME280;14654;48.898;8.308;2024-02-14T07:49:17;100778.09;;;9.29;100.00
15634;BME280;14654;48.898;8.308;2024-02-14T07:51:42;100778.09;;;9.33;100.00
15634;BME280;14654;48.898;8.308;2024-02-14T07:54:08;100776.38;;;9.36;100.00
15634;BME280;14654;48.898;8.308;2024-02-14T07:56:33;100771.22;;;9.41;100.00
15634;BME280;14654;48.898;8.308;2024-02-14T07:58:58;100778.16;;;9.50;100.00
15634;BME280;14654;48.898;8.308;2024-02-14T08:01:25;100789.38;;;9.61;100.00
15634;BME280;14654;48.898;8.308;2024-02-14T08:03:51;100785.13;;;9.74;100.00
15634;BME280;14654;48.898;8.308;2024-02-14T08:06:17;100783.41;;;9.85;100.00
15634;BME280;14654;48.898;8.308;2024-02-14T08:08:42;100779.97;;;9.99;100.00
15634;BME280;14654;48.898;8.308;2024-02-14T08:11:09;100779.16;;;10.12;100.00
15634;BME280;14654;48.898;8.308;2024-02-14T08:13:34;100781.75;;;10.20;100.00
15634;BME280;14654;48.898;8.308;2024-02-14T08:16:00;100780.88;;;10.22;100.00
15634;BME280;14654;48.898;8.308;2024-02-14T08:18:25;100784.31;;;10.26;100.00
15634;BME280;14654;48.898;8.308;2024-02-14T08:20:52;100792.97;;;10.31;100.00
15634;BME280;14654;48.898;8.308;2024-02-14T08:23:18;100787.78;;;10.33;100.00
15634;BME280;14654;48.898;8.308;2024-02-14T08:25:45;100788.63;;;10.36;100.00
15634;BME280;14654;48.898;8.308;2024-02-14T08:28:11;100801.63;;;10.38;100.00
15634;BME280;14654;48.898;8.308;2024-02-14T08:30:36;100798.19;;;10.42;100.00
15634;BME280;14654;48.898;8.308;2024-02-14T08:33:03;100795.53;;;10.37;100.00
15634;BME280;14654;48.898;8.308;2024-02-14T08:35:28;100794.66;;;10.31;100.00
15634;BME280;14654;48.898;8.308;2024-02-14T08:37:54;100792.13;;;10.42;100.00
15634;BME280;14654;48.898;8.308;2024-02-14T08:40:19;100786.09;;;10.41;100.00
15634;BME280;14654;48.898;8.308;2024-02-14T08:42:45;100788.69;;;10.49;100.00
15634;BME280;14654;48.898;8.308;2024-02-14T08:45:10;100781.75;;;10.57;100.00
15634;BME280;14654;48.898;8.308;2024-02-14T08:47:36;100781.75;;;10.70;100.00
15634;BME280;14654;48.898;8.308;2024-02-14T08:50:03;100782.63;;;10.73;100.00
15634;BME280;14654;48.898;8.308;2024-02-14T08:52:29;100773.09;;;10.83;100.00
15634;BME280;14654;48.898;8.308;2024-02-14T08:54:54;100779.97;;;10.96;100.00
15634;BME280;14654;48.898;8.308;2024-02-14T08:57:20;100782.56;;;10.98;100.00
15634;BME280;14654;48.898;8.308;2024-02-14T08:59:46;100782.53;;;11.04;100.00
15634;BME280;14654;48.898;8.308;2024-02-14T09:02:13;100792.03;;;11.10;100.00
15634;BME280;14654;48.898;8.308;2024-02-14T09:04:39;100790.28;;;11.13;100.00
15634;BME280;14654;48.898;8.308;2024-02-14T09:07:06;100784.22;;;11.16;100.00
15634;BME280;14654;48.898;8.308;2024-02-14T09:09:32;100786.75;;;11.28;100.00
15634;BME280;14654;48.898;8.308;2024-02-14T09:11:57;100795.44;;;11.24;100.00
15634;BME280;14654;48.898;8.308;2024-02-14T09:14:27;100805.72;;;11.35;100.00
15634;BME280;14654;48.898;8.308;2024-02-14T09:16:52;100794.53;;;11.38;100.00
15634;BME280;14654;48.898;8.308;2024-02-14T09:19:18;100794.53;;;11.32;100.00
15634;BME280;14654;48.898;8.308;2024-02-14T09:21:43;100794.47;;;11.44;100.00
15634;BME280;14654;48.898;8.308;2024-02-14T09:24:08;100788.44;;;11.40;100.00
15634;BME280;14654;48.898;8.308;2024-02-14T09:26:34;100792.72;;;11.55;100.00
15634;BME280;14654;48.898;8.308;2024-02-14T09:28:59;100795.19;;;11.79;99.57
15634;BME280;14654;48.898;8.308;2024-02-14T09:31:24;100787.34;;;11.88;99.99
15634;BME280;14654;48.898;8.308;2024-02-14T09:33:50;100783.81;;;12.01;99.37
15634;BME280;14654;48.898;8.308;2024-02-14T09:36:15;100773.41;;;12.03;98.97
15634;BME280;14654;48.898;8.308;2024-02-14T09:38:42;100769.88;;;12.15;98.44
15634;BME280;14654;48.898;8.308;2024-02-14T09:41:28;100773.44;;;12.04;96.48
15634;BME280;14654;48.898;8.308;2024-02-14T09:43:55;100775.03;;;12.19;97.25
15634;BME280;14654;48.898;8.308;2024-02-14T09:46:24;100766.25;;;12.36;97.35
15634;BME280;14654;48.898;8.308;2024-02-14T09:48:50;100774.06;;;12.34;96.65
15634;BME280;14654;48.898;8.308;2024-02-14T09:51:17;100782.75;;;12.27;96.25
15634;BME280;14654;48.898;8.308;2024-02-14T09:53:42;100776.63;;;12.38;97.25
15634;BME280;14654;48.898;8.308;2024-02-14T09:56:10;100770.50;;;12.45;96.79
15634;BME280;14654;48.898;8.308;2024-02-14T09:58:36;100774.09;;;12.30;96.27
15634;BME280;14654;48.898;8.308;2024-02-14T10:01:02;100781.84;;;12.33;96.93
15634;BME280;14654;48.898;8.308;2024-02-14T10:03:27;100768.78;;;12.45;96.98
15634;BME280;14654;48.898;8.308;2024-02-14T10:05:55;100781.69;;;12.52;96.48
15634;BME280;14654;48.898;8.308;2024-02-14T10:08:21;100772.97;;;12.57;96.75
15634;BME280;14654;48.898;8.308;2024-02-14T10:10:47;100772.09;;;12.61;96.92
15634;BME280;14654;48.898;8.308;2024-02-14T10:13:12;100778.94;;;12.69;98.00
15634;BME280;14654;48.898;8.308;2024-02-14T10:15:37;100777.19;;;12.72;96.78
15634;BME280;14654;48.898;8.308;2024-02-14T10:18:03;100780.59;;;12.76;97.05
15634;BME280;14654;48.898;8.308;2024-02-14T10:20:28;100777.94;;;12.82;97.47
15634;BME280;14654;48.898;8.308;2024-02-14T10:23:03;100785.75;;;12.79;97.55
15634;BME280;14654;48.898;8.308;2024-02-14T10:25:29;100800.38;;;12.89;98.10
15634;BME280;14654;48.898;8.308;2024-02-14T10:27:55;100796.91;;;12.87;98.00
15634;BME280;14654;48.898;8.308;2024-02-14T10:30:20;100808.94;;;13.01;97.73
15634;BME280;14654;48.898;8.308;2024-02-14T10:32:47;100809.66;;;13.10;97.09
15634;BME280;14654;48.898;8.308;2024-02-14T10:35:14;100821.81;;;13.10;96.75
15634;BME280;14654;48.898;8.308;2024-02-14T10:37:40;100818.34;;;13.11;96.96
15634;BME280;14654;48.898;8.308;2024-02-14T10:40:06;100824.34;;;13.15;97.93
15634;BME280;14654;48.898;8.308;2024-02-14T10:42:32;100822.56;;;13.20;98.28
15634;BME280;14654;48.898;8.308;2024-02-14T10:44:58;100827.56;;;13.38;97.91
15634;BME280;14654;48.898;8.308;2024-02-14T10:47:44;100823.19;;;13.44;96.91
15634;BME280;14654;48.898;8.308;2024-02-14T10:50:13;100814.41;;;13.52;96.26
15634;BME280;14654;48.898;8.308;2024-02-14T10:52:40;100817.06;;;13.46;97.07
15634;BME280;14654;48.898;8.308;2024-02-14T10:55:06;100820.28;;;13.68;97.33
15634;BME280;14654;48.898;8.308;2024-02-14T10:57:32;100825.31;;;13.79;96.84
15634;BME280;14654;48.898;8.308;2024-02-14T11:00:03;100824.44;;;13.82;96.50
15634;BME280;14654;48.898;8.308;2024-02-14T11:02:30;100816.66;;;13.80;96.73
15634;BME280;14654;48.898;8.308;2024-02-14T11:04:57;100816.06;;;13.58;98.00
15634;BME280;14654;48.898;8.308;2024-02-14T11:07:23;100819.31;;;13.76;98.06
15634;BME280;14654;48.898;8.308;2024-02-14T11:09:52;100815.50;;;14.00;98.38
15634;BME280;14654;48.898;8.308;2024-02-14T11:12:25;100825.16;;;13.93;98.38
15634;BME280;14654;48.898;8.308;2024-02-14T11:14:50;100813.63;;;14.10;98.78
15634;BME280;14654;48.898;8.308;2024-02-14T11:17:18;100818.59;;;14.24;98.92
15634;BME280;14654;48.898;8.308;2024-02-14T11:19:49;100808.78;;;14.43;98.41
15634;BME280;14654;48.898;8.308;2024-02-14T11:22:20;100799.13;;;14.48;98.29
15634;BME280;14654;48.898;8.308;2024-02-14T11:24:47;100809.59;;;14.46;98.54
15634;BME280;14654;48.898;8.308;2024-02-14T11:27:13;100801.72;;;14.48;99.49
15634;BME280;14654;48.898;8.308;2024-02-14T11:29:51;100802.56;;;14.50;99.63
15634;BME280;14654;48.898;8.308;2024-02-14T11:32:17;100793.69;;;14.62;99.67
15634;BME280;14654;48.898;8.308;2024-02-14T11:34:44;100810.34;;;14.53;100.00
15634;BME280;14654;48.898;8.308;2024-02-14T11:37:09;100804.94;;;14.64;100.00
15634;BME280;14654;48.898;8.308;2024-02-14T11:39:34;100797.50;;;14.92;99.53
15634;BME280;14654;48.898;8.308;2024-02-14T11:42:00;100799.56;;;14.75;99.92
15634;BME280;14654;48.898;8.308;2024-02-14T11:44:25;100794.34;;;14.76;99.60
15634;BME280;14654;48.898;8.308;2024-02-14T11:46:51;100799.50;;;14.78;99.57
15634;BME280;14654;48.898;8.308;2024-02-14T11:49:17;100791.69;;;14.80;99.80
15634;BME280;14654;48.898;8.308;2024-02-14T11:51:42;100794.13;;;14.87;100.00
15634;BME280;14654;48.898;8.308;2024-02-14T11:54:08;100801.56;;;15.07;100.00
15634;BME280;14654;48.898;8.308;2024-02-14T11:56:36;100802.47;;;15.06;100.00
15634;BME280;14654;48.898;8.308;2024-02-14T11:59:10;100805.09;;;15.05;100.00
15634;BME280;14654;48.898;8.308;2024-02-14T12:01:39;100792.28;;;14.94;100.00
15634;BME280;14654;48.898;8.308;2024-02-14T12:04:05;100802.69;;;14.94;100.00
15634;BME280;14654;48.898;8.308;2024-02-14T12:06:34;100789.44;;;15.06;100.00
15634;BME280;14654;48.898;8.308;2024-02-14T12:09:03;100796.50;;;15.44;100.00
15634;BME280;14654;48.898;8.308;2024-02-14T12:11:35;100795.00;;;15.32;100.00
15634;BME280;14654;48.898;8.308;2024-02-14T12:14:10;100789.97;;;15.22;100.00
15634;BME280;14654;48.898;8.308;2024-02-14T12:16:36;100795.56;;;15.04;100.00
15634;BME280;14654;48.898;8.308;2024-02-14T12:19:05;100787.25;;;14.83;100.00
15634;BME280;14654;48.898;8.308;2024-02-14T12:21:38;100786.47;;;14.80;100.00
15634;BME280;14654;48.898;8.308;2024-02-14T12:24:08;100779.03;;;14.56;100.00
15634;BME280;14654;48.898;8.308;2024-02-14T12:26:34;100781.78;;;14.48;100.00
15634;BME280;14654;48.898;8.308;2024-02-14T12:29:04;100786.56;;;14.22;100.00
15634;BME280;14654;48.898;8.308;2024-02-14T12:31:31;100783.00;;;14.26;100.00
15634;BME280;14654;48.898;8.308;2024-02-14T12:33:57;100780.44;;;14.23;100.00
15634;BME280;14654;48.898;8.308;2024-02-14T12:36:26;100769.09;;;14.27;100.00
15634;BME280;14654;48.898;8.308;2024-02-14T12:38:52;100779.34;;;14.38;100.00
15634;BME280;14654;48.898;8.308;2024-02-14T12:41:18;100778.28;;;14.50;100.00
15634;BME280;14654;48.898;8.308;2024-02-14T12:43:44;100778.69;;;14.76;100.00